Time;durP1;ratioP1;P1;durP2;ratioP2;P2;SDS_P1;SDS_P2;PMS_P1;PMS_P2;Temp;Humidity;BMP_temperature;BMP_pressure;BME280_temperature;BME280_humidity;BME280_pressure;Samples;Min_cycle;Max_cycle;Signal;HPM_P1;HPM_P2
2024/01/08 00:00:33;;;;;;;2.40;2.30;;;;;;;;;;5047790;27;99644;-76
2024/01/08 00:02:59;;;;;;;2.97;2.80;;;;;;;;;;5047049;27;98839;-76
2024/01/08 00:05:26;;;;;;;4.63;3.00;;;;;;;;;;5048394;27;99999;-76
2024/01/08 00:07:52;;;;;;;3.35;3.05;;;;;;;;;;5047685;27;99835;-76
2024/01/08 00:10:19;;;;;;;2.75;2.55;;;;;;;;;;5047448;27;98523;-76
2024/01/08 00:12:45;;;;;;;2.53;2.42;;;;;;;;;;5054817;27;99439;-76
2024/01/08 00:15:12;;;;;;;3.53;3.30;;;;;;;;;;5051338;27;99814;-76
2024/01/08 00:17:38;;;;;;;3.47;3.28;;;;;;;;;;5056805;27;99776;-76
2024/01/08 00:20:06;;;;;;;1.95;1.85;;;;;;;;;;5058809;27;99926;-75
2024/01/08 00:22:32;;;;;;;2.10;2.00;;;;;;;;;;5057180;27;98421;-76
2024/01/08 00:24:58;;;;;;;2.88;2.67;;;;;;;;;;5056025;27;100861;-75
2024/01/08 00:27:25;;;;;;;2.70;2.50;;;;;;;;;;5060069;27;99234;-75
2024/01/08 00:29:51;;;;;;;2.00;1.90;;;;;;;;;;5054854;27;99925;-75
2024/01/08 00:32:18;;;;;;;2.72;2.53;;;;;;;;;;5054283;27;99733;-75
2024/01/08 00:34:44;;;;;;;2.22;2.13;;;;;;;;;;5057959;27;100070;-76
2024/01/08 00:37:11;;;;;;;2.05;1.88;;;;;;;;;;5064238;27;98776;-76
2024/01/08 00:39:38;;;;;;;2.63;2.42;;;;;;;;;;5057519;27;100445;-75
2024/01/08 00:42:04;;;;;;;2.53;2.42;;;;;;;;;;5061366;27;98729;-75
2024/01/08 00:44:31;;;;;;;2.33;2.22;;;;;;;;;;5057566;27;99421;-75
2024/01/08 00:46:57;;;;;;;2.00;1.90;;;;;;;;;;5063156;27;99911;-76
2024/01/08 00:49:24;;;;;;;3.63;3.25;;;;;;;;;;5067722;27;98275;-75
2024/01/08 00:51:50;;;;;;;5.45;2.63;;;;;;;;;;5066585;27;98700;-75
2024/01/08 00:54:17;;;;;;;5.13;3.58;;;;;;;;;;5067092;27;99858;-77
2024/01/08 00:56:43;;;;;;;2.47;2.13;;;;;;;;;;5047879;27;98098;-75
2024/01/08 00:59:09;;;;;;;3.33;3.08;;;;;;;;;;5049288;27;99573;-76
2024/01/08 01:01:36;;;;;;;2.90;2.22;;;;;;;;;;5047355;27;98490;-76
2024/01/08 01:04:03;;;;;;;3.03;2.83;;;;;;;;;;5054589;27;99707;-76
2024/01/08 01:06:29;;;;;;;2.85;2.75;;;;;;;;;;5066313;27;100227;-76
2024/01/08 01:08:56;;;;;;;2.47;2.28;;;;;;;;;;5066803;27;99019;-75
2024/01/08 01:11:22;;;;;;;5.93;3.72;;;;;;;;;;5067508;27;99348;-75
2024/01/08 01:13:49;;;;;;;2.47;2.30;;;;;;;;;;5046696;27;100109;-76
2024/01/08 01:16:15;;;;;;;2.58;2.47;;;;;;;;;;5046588;27;98107;-76
2024/01/08 01:18:42;;;;;;;2.97;2.78;;;;;;;;;;5049555;27;99676;-75
2024/01/08 01:21:10;;;;;;;2.92;2.83;;;;;;;;;;5057587;27;100167;-76
2024/01/08 01:23:36;;;;;;;2.10;2.00;;;;;;;;;;5056744;27;99653;-75
2024/01/08 01:26:03;;;;;;;3.08;2.88;;;;;;;;;;5052844;27;101312;-75
2024/01/08 01:28:29;;;;;;;3.30;3.00;;;;;;;;;;5055552;27;99201;-76
2024/01/08 01:30:57;;;;;;;3.08;2.88;;;;;;;;;;5055140;27;99407;-75
2024/01/08 01:33:23;;;;;;;1.35;1.35;;;;;;;;;;5062194;27;99101;-76
2024/01/08 01:35:50;;;;;;;4.95;2.47;;;;;;;;;;5056902;27;99130;-76
2024/01/08 01:38:16;;;;;;;3.83;2.75;;;;;;;;;;5058192;27;99746;-76
2024/01/08 01:40:46;;;;;;;4.75;3.22;;;;;;;;;;5052447;27;100206;-75
2024/01/08 01:43:22;;;;;;;3.30;3.10;;;;;;;;;;5065336;27;98199;-76
2024/01/08 01:45:50;;;;;;;3.40;2.85;;;;;;;;;;5058079;27;100186;-76
2024/01/08 01:48:16;;;;;;;3.63;3.33;;;;;;;;;;5062717;27;98952;-75
2024/01/08 01:50:44;;;;;;;2.83;2.40;;;;;;;;;;5050318;27;98747;-75
2024/01/08 01:53:10;;;;;;;2.47;2.28;;;;;;;;;;5062739;27;100057;-76
2024/01/08 01:55:38;;;;;;;2.58;2.47;;;;;;;;;;5069008;27;98243;-75
2024/01/08 01:58:05;;;;;;;2.15;2.00;;;;;;;;;;5069236;27;99550;-75
2024/01/08 02:00:32;;;;;;;2.78;2.58;;;;;;;;;;5069979;27;99999;-76
2024/01/08 02:02:59;;;;;;;2.35;1.95;;;;;;;;;;5064024;27;98254;-75
2024/01/08 02:05:26;;;;;;;4.15;2.70;;;;;;;;;;5064580;27;99897;-75
2024/01/08 02:07:53;;;;;;;3.20;2.83;;;;;;;;;;5053807;27;98234;-75
2024/01/08 02:10:20;;;;;;;3.28;3.05;;;;;;;;;;5060064;27;99605;-75
2024/01/08 02:12:46;;;;;;;2.53;2.22;;;;;;;;;;5060856;27;99981;-75
2024/01/08 02:15:12;;;;;;;2.83;2.60;;;;;;;;;;5057489;27;98588;-75
2024/01/08 02:17:39;;;;;;;3.67;3.25;;;;;;;;;;5057406;27;99601;-76
2024/01/08 02:20:07;;;;;;;3.17;2.67;;;;;;;;;;5061737;27;100019;-76
2024/01/08 02:22:41;;;;;;;2.90;2.80;;;;;;;;;;5059392;27;99104;-75
2024/01/08 02:25:08;;;;;;;3.03;2.83;;;;;;;;;;5061260;27;99585;-76
2024/01/08 02:27:34;;;;;;;2.95;2.22;;;;;;;;;;5064206;27;100478;-75
2024/01/08 02:30:01;;;;;;;2.08;2.00;;;;;;;;;;5060180;27;99757;-76
2024/01/08 02:32:27;;;;;;;5.10;3.35;;;;;;;;;;5061327;27;99923;-76
2024/01/08 02:34:54;;;;;;;2.90;2.58;;;;;;;;;;5066044;27;98799;-76
2024/01/08 02:37:20;;;;;;;4.45;3.28;;;;;;;;;;5058415;27;100583;-75
2024/01/08 02:39:47;;;;;;;3.28;3.03;;;;;;;;;;5057551;27;99939;-75
2024/01/08 02:42:14;;;;;;;2.47;2.38;;;;;;;;;;5062095;27;98901;-76
2024/01/08 02:44:41;;;;;;;3.35;3.10;;;;;;;;;;5056400;27;99789;-76
2024/01/08 02:47:07;;;;;;;3.35;3.00;;;;;;;;;;5060892;27;99347;-75
2024/01/08 02:49:34;;;;;;;4.15;3.85;;;;;;;;;;5059734;27;100386;-76
2024/01/08 02:52:00;;;;;;;1.90;1.88;;;;;;;;;;5058593;27;99936;-75
2024/01/08 02:54:26;;;;;;;2.92;2.72;;;;;;;;;;5060863;27;98299;-76
2024/01/08 02:56:53;;;;;;;2.35;2.15;;;;;;;;;;5068500;27;98593;-76
2024/01/08 02:59:19;;;;;;;3.60;3.40;;;;;;;;;;5068020;27;99860;-75
2024/01/08 03:01:46;;;;;;;3.70;3.40;;;;;;;;;;5069334;27;98393;-75
2024/01/08 03:04:12;;;;;;;3.63;3.33;;;;;;;;;;5069167;27;99667;-75
2024/01/08 03:06:39;;;;;;;2.50;2.40;;;;;;;;;;5068330;27;99994;-76
2024/01/08 03:09:05;;;;;;;5.93;4.03;;;;;;;;;;5072322;27;98361;-75
2024/01/08 03:11:32;;;;;;;2.60;2.40;;;;;;;;;;5066666;27;98999;-76
2024/01/08 03:13:58;;;;;;;2.40;2.30;;;;;;;;;;5068367;27;98316;-76
2024/01/08 03:16:25;;;;;;;2.78;2.58;;;;;;;;;;5068835;27;99705;-74
2024/01/08 03:18:51;;;;;;;2.80;2.67;;;;;;;;;;5068081;27;98869;-75
2024/01/08 03:21:18;;;;;;;3.47;3.30;;;;;;;;;;5068767;27;98247;-76
2024/01/08 03:23:44;;;;;;;4.35;3.95;;;;;;;;;;5062363;27;99372;-76
2024/01/08 03:26:11;;;;;;;3.67;3.08;;;;;;;;;;5054255;27;99165;-76
2024/01/08 03:28:37;;;;;;;2.80;2.58;;;;;;;;;;5060152;27;98229;-76
2024/01/08 03:31:04;;;;;;;3.30;3.03;;;;;;;;;;5069338;27;98743;-75
2024/01/08 03:33:30;;;;;;;3.72;3.42;;;;;;;;;;5056873;27;98760;-75
2024/01/08 03:35:57;;;;;;;2.30;2.20;;;;;;;;;;5057960;27;99388;-75
2024/01/08 03:38:24;;;;;;;4.28;3.88;;;;;;;;;;5056956;27;100613;-76
2024/01/08 03:40:50;;;;;;;3.60;3.30;;;;;;;;;;5055588;27;98863;-76
2024/01/08 03:43:17;;;;;;;3.80;3.30;;;;;;;;;;5057412;27;100020;-75
2024/01/08 03:45:43;;;;;;;3.38;3.08;;;;;;;;;;5056972;27;99136;-75
2024/01/08 03:48:10;;;;;;;4.03;3.70;;;;;;;;;;5059965;27;99008;-75
2024/01/08 03:50:36;;;;;;;3.67;2.92;;;;;;;;;;5062289;27;99369;-75
2024/01/08 03:53:03;;;;;;;3.55;2.78;;;;;;;;;;5057201;27;99902;-74
2024/01/08 03:55:30;;;;;;;3.55;3.15;;;;;;;;;;5058176;27;99018;-75
2024/01/08 03:57:56;;;;;;;4.78;4.30;;;;;;;;;;5061112;27;102142;-75
2024/01/08 04:00:24;;;;;;;3.45;3.15;;;;;;;;;;5060466;27;98338;-75
2024/01/08 04:02:50;;;;;;;3.33;3.13;;;;;;;;;;5057060;27;99766;-75
2024/01/08 04:05:17;;;;;;;5.32;3.55;;;;;;;;;;5053388;27;100511;-75
2024/01/08 04:07:44;;;;;;;3.80;3.47;;;;;;;;;;5052430;27;98479;-75
2024/01/08 04:10:11;;;;;;;3.55;3.35;;;;;;;;;;5052000;27;99877;-75
2024/01/08 04:12:37;;;;;;;3.72;3.45;;;;;;;;;;5051931;27;100163;-75
2024/01/08 04:15:04;;;;;;;4.13;2.78;;;;;;;;;;5059519;27;99148;-76
2024/01/08 04:17:30;;;;;;;3.80;3.17;;;;;;;;;;5062216;27;99093;-76
2024/01/08 04:19:57;;;;;;;3.67;3.10;;;;;;;;;;5057812;27;98258;-76
2024/01/08 04:22:24;;;;;;;5.65;3.40;;;;;;;;;;5058557;27;99611;-76
2024/01/08 04:24:50;;;;;;;3.10;2.83;;;;;;;;;;5054221;27;99991;-75
2024/01/08 04:27:17;;;;;;;3.30;3.10;;;;;;;;;;5056782;27;98782;-75
2024/01/08 04:29:43;;;;;;;3.08;2.88;;;;;;;;;;5054470;27;99597;-75
2024/01/08 04:32:09;;;;;;;3.92;3.53;;;;;;;;;;5057372;27;99649;-75
2024/01/08 04:34:36;;;;;;;3.35;3.13;;;;;;;;;;5056158;27;100044;-75
2024/01/08 04:37:03;;;;;;;4.45;2.95;;;;;;;;;;5059110;27;99468;-75
2024/01/08 04:39:29;;;;;;;4.30;2.90;;;;;;;;;;5055760;27;99056;-75
2024/01/08 04:41:56;;;;;;;3.83;3.63;;;;;;;;;;5060089;27;99638;-75
2024/01/08 04:44:22;;;;;;;5.13;3.63;;;;;;;;;;5052024;27;100097;-75
2024/01/08 04:46:49;;;;;;;4.95;4.53;;;;;;;;;;5057288;27;99904;-75
2024/01/08 04:49:17;;;;;;;9.48;4.60;;;;;;;;;;5059104;27;99767;-75
2024/01/08 04:51:44;;;;;;;7.15;3.63;;;;;;;;;;5053022;27;99979;-75
2024/01/08 04:54:10;;;;;;;3.55;2.88;;;;;;;;;;5057089;27;100317;-75
2024/01/08 04:56:37;;;;;;;3.60;3.40;;;;;;;;;;5057733;27;100531;-75
2024/01/08 04:59:03;;;;;;;4.45;4.07;;;;;;;;;;5063613;27;99371;-74
2024/01/08 05:01:35;;;;;;;8.60;4.47;;;;;;;;;;5067416;27;98460;-76
2024/01/08 05:04:01;;;;;;;4.00;3.70;;;;;;;;;;5067117;27;99999;-74
2024/01/08 05:06:28;;;;;;;3.47;3.17;;;;;;;;;;5066770;27;98250;-75
2024/01/08 05:08:54;;;;;;;4.85;4.32;;;;;;;;;;5067392;27;99621;-74
2024/01/08 05:11:21;;;;;;;4.65;4.25;;;;;;;;;;5049630;27;100019;-75
2024/01/08 05:13:48;;;;;;;3.03;2.65;;;;;;;;;;5046175;27;98241;-76
2024/01/08 05:16:14;;;;;;;8.50;4.63;;;;;;;;;;5055843;27;99388;-75
2024/01/08 05:18:41;;;;;;;4.45;3.85;;;;;;;;;;5069424;27;100278;-75
2024/01/08 05:21:07;;;;;;;3.63;3.40;;;;;;;;;;5070271;27;99703;-74
2024/01/08 05:23:34;;;;;;;5.63;3.90;;;;;;;;;;5070510;27;99849;-75
2024/01/08 05:26:01;;;;;;;6.38;4.95;;;;;;;;;;5070113;27;99561;-75
2024/01/08 05:28:28;;;;;;;4.63;4.32;;;;;;;;;;5053666;27;100174;-75
2024/01/08 05:30:55;;;;;;;5.15;4.22;;;;;;;;;;5057311;27;99973;-74
2024/01/08 05:33:22;;;;;;;3.95;3.65;;;;;;;;;;5058216;27;99439;-75
2024/01/08 05:35:49;;;;;;;2.90;2.63;;;;;;;;;;5062763;27;99390;-74
2024/01/08 05:38:15;;;;;;;4.70;4.30;;;;;;;;;;5059091;27;100021;-75
2024/01/08 05:40:42;;;;;;;5.85;3.92;;;;;;;;;;5063219;27;99015;-74
2024/01/08 05:43:08;;;;;;;10.20;5.32;;;;;;;;;;5056478;27;103289;-74
2024/01/08 05:45:35;;;;;;;3.60;3.05;;;;;;;;;;5059743;27;100157;-74
2024/01/08 05:48:01;;;;;;;5.05;4.65;;;;;;;;;;5058378;27;99305;-74
2024/01/08 05:50:28;;;;;;;6.65;5.82;;;;;;;;;;5059451;27;100048;-74
2024/01/08 05:52:55;;;;;;;7.25;3.97;;;;;;;;;;5057729;27;98338;-74
2024/01/08 05:55:22;;;;;;;5.65;5.18;;;;;;;;;;5057677;27;100081;-74
2024/01/08 05:57:49;;;;;;;6.22;4.10;;;;;;;;;;5056278;27;99135;-74
2024/01/08 06:00:16;;;;;;;4.88;3.50;;;;;;;;;;5059348;27;100077;-74
2024/01/08 06:02:42;;;;;;;8.52;5.63;;;;;;;;;;5054544;27;99383;-74
2024/01/08 06:05:09;;;;;;;3.60;3.30;;;;;;;;;;5055092;27;99449;-74
2024/01/08 06:07:38;;;;;;;3.80;3.50;;;;;;;;;;5056135;27;99369;-74
2024/01/08 06:10:05;;;;;;;5.07;4.55;;;;;;;;;;5051228;27;99698;-74
2024/01/08 06:12:32;;;;;;;12.82;5.05;;;;;;;;;;5059150;27;98454;-74
2024/01/08 06:14:58;;;;;;;4.30;4.00;;;;;;;;;;5056686;27;100127;-77
2024/01/08 06:17:25;;;;;;;7.65;3.78;;;;;;;;;;5055914;27;100029;-74
2024/01/08 06:19:51;;;;;;;5.13;4.60;;;;;;;;;;5061816;27;99421;-74
2024/01/08 06:22:18;;;;;;;7.65;5.72;;;;;;;;;;5055632;27;99889;-75
2024/01/08 06:24:44;;;;;;;4.43;4.07;;;;;;;;;;5056657;27;98870;-75
2024/01/08 06:27:11;;;;;;;5.55;4.38;;;;;;;;;;5055636;27;99272;-74
2024/01/08 06:29:37;;;;;;;2.72;2.60;;;;;;;;;;5059056;27;99920;-75
2024/01/08 06:32:04;;;;;;;4.22;3.90;;;;;;;;;;5052721;27;98749;-75
2024/01/08 06:34:30;;;;;;;4.03;3.83;;;;;;;;;;5059214;27;99437;-75
2024/01/08 06:36:57;;;;;;;4.43;4.13;;;;;;;;;;5059843;27;100036;-74
2024/01/08 06:39:26;;;;;;;6.65;4.88;;;;;;;;;;5067880;27;98351;-75
2024/01/08 06:41:52;;;;;;;3.00;2.85;;;;;;;;;;5061997;27;98609;-74
2024/01/08 06:44:19;;;;;;;6.82;6.22;;;;;;;;;;5048261;27;99769;-75
2024/01/08 06:46:46;;;;;;;4.90;4.32;;;;;;;;;;5058670;27;98082;-76
2024/01/08 06:49:12;;;;;;;3.65;3.42;;;;;;;;;;5051925;27;98942;-76
2024/01/08 06:51:40;;;;;;;4.95;3.17;;;;;;;;;;5055843;27;98796;-78
2024/01/08 06:54:07;;;;;;;5.40;3.58;;;;;;;;;;5049077;27;99536;-74
2024/01/08 06:56:34;;;;;;;3.03;2.92;;;;;;;;;;5057991;27;100122;-75
2024/01/08 06:59:01;;;;;;;7.82;3.65;;;;;;;;;;5055070;27;98312;-77
2024/01/08 07:01:28;;;;;;;4.03;3.67;;;;;;;;;;5056912;27;99816;-76
2024/01/08 07:03:54;;;;;;;4.18;3.80;;;;;;;;;;5047393;27;101042;-76
2024/01/08 07:06:21;;;;;;;3.65;3.45;;;;;;;;;;5053918;27;98764;-77
2024/01/08 07:08:48;;;;;;;5.30;3.40;;;;;;;;;;5049591;27;99987;-77
2024/01/08 07:11:21;;;;;;;3.42;2.70;;;;;;;;;;5047009;27;98270;-76
2024/01/08 07:13:47;;;;;;;3.10;2.90;;;;;;;;;;5055932;27;99657;-79
2024/01/08 07:16:14;;;;;;;3.92;3.63;;;;;;;;;;5046518;27;99116;-76
2024/01/08 07:18:41;;;;;;;3.92;3.35;;;;;;;;;;5059000;27;98396;-77
2024/01/08 07:21:09;;;;;;;4.05;3.00;;;;;;;;;;5060053;27;99239;-77
2024/01/08 07:23:35;;;;;;;5.22;4.38;;;;;;;;;;5049941;27;100216;-79
2024/01/08 07:26:02;;;;;;;4.32;3.92;;;;;;;;;;5055627;27;99567;-78
2024/01/08 07:28:29;;;;;;;3.20;2.80;;;;;;;;;;5064370;27;101693;-78
2024/01/08 07:30:55;;;;;;;5.60;3.50;;;;;;;;;;5062069;27;99977;-77
2024/01/08 07:33:22;;;;;;;2.70;2.50;;;;;;;;;;5068113;27;99684;-76
2024/01/08 07:35:48;;;;;;;4.18;3.83;;;;;;;;;;5066119;27;100111;-78
2024/01/08 07:38:15;;;;;;;5.15;3.80;;;;;;;;;;5067782;27;98307;-78
2024/01/08 07:40:41;;;;;;;3.53;3.17;;;;;;;;;;5063740;27;99069;-77
2024/01/08 07:43:08;;;;;;;2.92;2.72;;;;;;;;;;5067681;27;98910;-78
2024/01/08 07:45:34;;;;;;;3.90;3.60;;;;;;;;;;5068256;27;98033;-79
2024/01/08 07:48:01;;;;;;;2.60;2.40;;;;;;;;;;5067385;27;99396;-78
2024/01/08 07:50:29;;;;;;;4.07;3.67;;;;;;;;;;5071563;27;99993;-79
2024/01/08 07:52:56;;;;;;;2.63;2.25;;;;;;;;;;5067198;27;99628;-79
2024/01/08 07:55:22;;;;;;;2.30;2.20;;;;;;;;;;5067601;27;99258;-78
2024/01/08 07:57:49;;;;;;;3.88;3.58;;;;;;;;;;5068434;27;98323;-79
2024/01/08 08:00:15;;;;;;;4.60;3.20;;;;;;;;;;5067085;27;98706;-79
2024/01/08 08:02:42;;;;;;;2.58;2.38;;;;;;;;;;5068001;27;100202;-78
2024/01/08 08:05:09;;;;;;;3.05;2.85;;;;;;;;;;5067234;27;98485;-78
2024/01/08 08:07:35;;;;;;;4.47;2.47;;;;;;;;;;5067253;27;99480;-78
2024/01/08 08:10:02;;;;;;;3.20;3.00;;;;;;;;;;5067042;27;99062;-78
2024/01/08 08:12:28;;;;;;;3.88;3.45;;;;;;;;;;5071264;27;98288;-77
2024/01/08 08:14:58;;;;;;;3.50;3.15;;;;;;;;;;5066733;27;100045;-77
2024/01/08 08:17:25;;;;;;;4.90;3.97;;;;;;;;;;5068058;27;98658;-77
2024/01/08 08:19:53;;;;;;;2.38;2.28;;;;;;;;;;5067789;27;99444;-77
2024/01/08 08:22:19;;;;;;;4.40;4.00;;;;;;;;;;5066322;27;99001;-77
2024/01/08 08:24:47;;;;;;;3.22;2.95;;;;;;;;;;5067630;27;99099;-78
2024/01/08 08:27:13;;;;;;;3.63;3.05;;;;;;;;;;5067567;27;99878;-78
2024/01/08 08:29:45;;;;;;;3.33;3.00;;;;;;;;;;5066319;27;100061;-78
2024/01/08 08:32:12;;;;;;;4.82;3.70;;;;;;;;;;5066882;27;98001;-77
2024/01/08 08:34:41;;;;;;;7.63;3.15;;;;;;;;;;5070616;27;100095;-77
2024/01/08 08:37:10;;;;;;;3.67;3.35;;;;;;;;;;5066190;27;98491;-78
2024/01/08 08:39:37;;;;;;;3.17;2.90;;;;;;;;;;5067416;27;98446;-79
2024/01/08 08:42:05;;;;;;;4.00;3.70;;;;;;;;;;5067541;27;100166;-77
2024/01/08 08:44:31;;;;;;;3.75;3.40;;;;;;;;;;5067124;27;98297;-77
2024/01/08 08:46:58;;;;;;;4.30;3.58;;;;;;;;;;5067456;27;98776;-77
2024/01/08 08:49:25;;;;;;;2.83;2.72;;;;;;;;;;5066409;27;100035;-79
2024/01/08 08:51:56;;;;;;;2.58;2.38;;;;;;;;;;5067228;27;98243;-78
2024/01/08 08:54:23;;;;;;;2.45;2.35;;;;;;;;;;5066198;27;98646;-77
2024/01/08 08:56:49;;;;;;;4.20;3.85;;;;;;;;;;5073047;27;98355;-78
2024/01/08 08:59:16;;;;;;;3.88;3.58;;;;;;;;;;5071063;27;99357;-77
2024/01/08 09:01:42;;;;;;;4.07;3.78;;;;;;;;;;5070735;27;100130;-77
2024/01/08 09:04:09;;;;;;;5.13;3.53;;;;;;;;;;5069943;27;98274;-77
2024/01/08 09:06:36;;;;;;;3.25;3.05;;;;;;;;;;5071387;27;99542;-76
2024/01/08 09:09:03;;;;;;;3.58;3.10;;;;;;;;;;5070489;27;100033;-77
2024/01/08 09:11:32;;;;;;;4.00;3.63;;;;;;;;;;5070737;27;98287;-76
2024/01/08 09:13:58;;;;;;;4.13;3.00;;;;;;;;;;5070794;27;99273;-77
2024/01/08 09:16:26;;;;;;;4.03;3.45;;;;;;;;;;5077243;27;99633;-76
2024/01/08 09:18:52;;;;;;;3.60;3.30;;;;;;;;;;5048930;27;99751;-77
2024/01/08 09:21:19;;;;;;;4.38;2.97;;;;;;;;;;5049981;27;99816;-77
2024/01/08 09:23:46;;;;;;;5.95;3.72;;;;;;;;;;5050407;27;98310;-79
2024/01/08 09:26:12;;;;;;;3.00;2.67;;;;;;;;;;5048995;27;98646;-77
2024/01/08 09:28:39;;;;;;;3.42;3.15;;;;;;;;;;5063584;27;98978;-77
2024/01/08 09:31:05;;;;;;;2.92;2.78;;;;;;;;;;5050095;27;98591;-77
2024/01/08 09:33:32;;;;;;;3.28;3.08;;;;;;;;;;5056735;27;98749;-78
2024/01/08 09:35:59;;;;;;;3.67;3.47;;;;;;;;;;5073524;27;99948;-79
2024/01/08 09:38:25;;;;;;;3.00;2.75;;;;;;;;;;5073264;27;98406;-79
2024/01/08 09:40:52;;;;;;;6.28;3.95;;;;;;;;;;5069891;27;98964;-79
2024/01/08 09:43:28;;;;;;;2.72;2.53;;;;;;;;;;5069844;27;99151;-78
2024/01/08 09:46:04;;;;;;;2.90;2.70;;;;;;;;;;5069143;27;98737;-78
2024/01/08 09:48:31;;;;;;;3.08;2.88;;;;;;;;;;5070302;27;99995;-78
2024/01/08 09:51:01;;;;;;;4.00;3.60;;;;;;;;;;5070078;27;98216;-78
2024/01/08 09:53:28;;;;;;;4.15;3.53;;;;;;;;;;5049529;27;99531;-78
2024/01/08 09:55:55;;;;;;;3.15;2.90;;;;;;;;;;5049660;27;100417;-78
2024/01/08 09:58:22;;;;;;;2.67;2.45;;;;;;;;;;5049721;27;98266;-78
2024/01/08 10:00:49;;;;;;;5.43;3.72;;;;;;;;;;5052426;27;99517;-78
2024/01/08 10:03:15;;;;;;;5.05;4.28;;;;;;;;;;5049448;27;98051;-78
2024/01/08 10:05:42;;;;;;;4.05;3.65;;;;;;;;;;5049853;27;99438;-77
2024/01/08 10:08:08;;;;;;;3.42;3.22;;;;;;;;;;5058073;27;99937;-79
2024/01/08 10:10:35;;;;;;;11.35;2.72;;;;;;;;;;5069547;27;98792;-79
2024/01/08 10:13:01;;;;;;;3.50;3.17;;;;;;;;;;5069437;27;98641;-79
2024/01/08 10:15:28;;;;;;;3.83;3.05;;;;;;;;;;5068055;27;99270;-80
2024/01/08 10:17:56;;;;;;;4.25;3.95;;;;;;;;;;5070349;27;99112;-77
2024/01/08 10:20:22;;;;;;;3.28;2.42;;;;;;;;;;5069828;27;99794;-77
2024/01/08 10:23:03;;;;;;;3.28;2.95;;;;;;;;;;5072130;27;100397;-77
2024/01/08 10:25:30;;;;;;;9.43;3.53;;;;;;;;;;5070289;27;99868;-77
2024/01/08 10:27:56;;;;;;;4.13;3.85;;;;;;;;;;5068678;27;100121;-77
2024/01/08 10:30:23;;;;;;;3.35;3.15;;;;;;;;;;5070085;27;98411;-77
2024/01/08 10:32:50;;;;;;;4.15;3.88;;;;;;;;;;5069647;27;100032;-78
2024/01/08 10:35:18;;;;;;;4.28;3.22;;;;;;;;;;5068918;27;99246;-79
2024/01/08 10:37:47;;;;;;;4.28;3.78;;;;;;;;;;5070323;27;98228;-76
2024/01/08 10:40:13;;;;;;;4.22;3.25;;;;;;;;;;5070069;27;99378;-79
2024/01/08 10:42:42;;;;;;;5.63;4.50;;;;;;;;;;5069431;27;100102;-78
2024/01/08 10:45:08;;;;;;;4.90;4.20;;;;;;;;;;5073317;27;98219;-78
2024/01/08 10:47:42;;;;;;;3.65;2.88;;;;;;;;;;5069338;27;99043;-78
2024/01/08 10:50:10;;;;;;;2.85;2.65;;;;;;;;;;5069198;27;98243;-78
2024/01/08 10:52:39;;;;;;;3.70;3.33;;;;;;;;;;5070462;27;99340;-78
2024/01/08 10:55:07;;;;;;;5.72;3.50;;;;;;;;;;5069712;27;100116;-78
2024/01/08 10:57:38;;;;;;;4.30;3.25;;;;;;;;;;5068858;27;98860;-80
2024/01/08 11:00:12;;;;;;;3.65;3.45;;;;;;;;;;5069979;27;99323;-78
2024/01/08 11:02:39;;;;;;;2.67;2.47;;;;;;;;;;5069560;27;98834;-79
2024/01/08 11:05:09;;;;;;;3.17;2.85;;;;;;;;;;5072499;27;98736;-78
2024/01/08 11:07:38;;;;;;;4.43;4.00;;;;;;;;;;5070607;27;99068;-79
2024/01/08 11:10:06;;;;;;;9.60;2.75;;;;;;;;;;5069176;27;98853;-79
2024/01/08 11:12:36;;;;;;;2.58;2.45;;;;;;;;;;5069792;27;99486;-79
2024/01/08 11:15:03;;;;;;;3.70;3.33;;;;;;;;;;5069014;27;100108;-79
2024/01/08 11:17:30;;;;;;;2.45;2.35;;;;;;;;;;5055640;27;98332;-79
2024/01/08 11:19:58;;;;;;;3.08;2.83;;;;;;;;;;5061708;27;99580;-78
2024/01/08 11:22:24;;;;;;;3.95;3.67;;;;;;;;;;5068682;27;99989;-74
2024/01/08 11:24:58;;;;;;;3.53;3.25;;;;;;;;;;5068643;27;98503;-79
2024/01/08 11:27:25;;;;;;;3.47;3.17;;;;;;;;;;5072472;27;100086;-79
2024/01/08 11:29:57;;;;;;;3.72;3.42;;;;;;;;;;5069678;27;98272;-79
2024/01/08 11:32:36;;;;;;;5.35;3.75;;;;;;;;;;5069026;27;99873;-78
2024/01/08 11:35:03;;;;;;;3.25;3.05;;;;;;;;;;5069942;27;100090;-77
2024/01/08 11:37:37;;;;;;;5.10;3.80;;;;;;;;;;5060334;27;98205;-77
2024/01/08 11:40:10;;;;;;;5.40;3.22;;;;;;;;;;5048121;27;98271;-77
2024/01/08 11:42:36;;;;;;;;;;;;;;;;;;5049299;27;101009;-77
2024/01/08 11:45:03;;;;;;;3.00;2.80;;;;;;;;;;5047063;27;123076;-75
2024/01/08 11:47:30;;;;;;;2.83;2.65;;;;;;;;;;5048016;27;99635;-78
2024/01/08 11:49:57;;;;;;;2.90;2.75;;;;;;;;;;5051352;27;99050;-78
2024/01/08 11:52:25;;;;;;;3.40;2.70;;;;;;;;;;5048057;27;99879;-79
2024/01/08 11:54:52;;;;;;;3.47;3.05;;;;;;;;;;5048854;27;99025;-78
2024/01/08 11:57:19;;;;;;;3.65;3.35;;;;;;;;;;5048601;27;98276;-79
2024/01/08 11:59:46;;;;;;;2.83;2.63;;;;;;;;;;5048264;27;99928;-79
2024/01/08 12:02:20;;;;;;;3.15;2.90;;;;;;;;;;5048042;27;99058;-78
2024/01/08 12:04:52;;;;;;;3.25;2.60;;;;;;;;;;5048850;27;98068;-78
2024/01/08 12:07:19;;;;;;;2.75;2.55;;;;;;;;;;5046780;27;99774;-77
2024/01/08 12:09:47;;;;;;;2.22;2.13;;;;;;;;;;5048311;27;100022;-78
2024/01/08 12:12:17;;;;;;;3.60;2.90;;;;;;;;;;5050875;27;98230;-77
2024/01/08 12:14:48;;;;;;;2.88;2.70;;;;;;;;;;5046976;27;100303;-78
2024/01/08 12:17:15;;;;;;;6.50;3.28;;;;;;;;;;5048092;27;98217;-79
2024/01/08 12:19:48;;;;;;;3.38;3.08;;;;;;;;;;5059251;27;98882;-79
2024/01/08 12:22:16;;;;;;;5.43;3.45;;;;;;;;;;5067575;27;100018;-79
2024/01/08 12:24:45;;;;;;;2.80;2.60;;;;;;;;;;5068584;27;98259;-79
2024/01/08 12:27:14;;;;;;;2.75;2.65;;;;;;;;;;5068732;27;99526;-78
2024/01/08 12:29:41;;;;;;;2.47;2.22;;;;;;;;;;5049805;27;101651;-79
2024/01/08 12:32:13;;;;;;;2.22;2.13;;;;;;;;;;5068914;27;98234;-79
2024/01/08 12:34:39;;;;;;;2.73;2.63;;;;;;;;;;5060710;27;99286;-79
2024/01/08 12:37:09;;;;;;;3.00;2.80;;;;;;;;;;5046937;27;98867;-79
2024/01/08 12:39:36;;;;;;;2.50;2.40;;;;;;;;;;5065943;27;99542;-79
2024/01/08 12:42:07;;;;;;;3.42;3.13;;;;;;;;;;5067463;27;100132;-79
2024/01/08 12:44:34;;;;;;;6.10;3.78;;;;;;;;;;5068452;27;98197;-79
2024/01/08 12:47:01;;;;;;;2.63;2.50;;;;;;;;;;5067960;27;98588;-78
2024/01/08 12:49:28;;;;;;;3.22;3.03;;;;;;;;;;5067026;27;99198;-78
2024/01/08 12:52:00;;;;;;;2.63;2.53;;;;;;;;;;5068488;27;98258;-77
2024/01/08 12:54:27;;;;;;;3.20;3.00;;;;;;;;;;5068741;27;99531;-78
2024/01/08 12:56:53;;;;;;;4.32;2.80;;;;;;;;;;5070481;27;99664;-77
2024/01/08 12:59:22;;;;;;;2.97;2.78;;;;;;;;;;5068233;27;99297;-77
2024/01/08 13:01:49;;;;;;;3.33;3.08;;;;;;;;;;5067569;27;100052;-78
2024/01/08 13:04:15;;;;;;;4.68;3.20;;;;;;;;;;5066906;27;98263;-79
2024/01/08 13:06:43;;;;;;;2.70;2.53;;;;;;;;;;5068256;27;98789;-78
2024/01/08 13:09:10;;;;;;;2.83;2.30;;;;;;;;;;5067698;27;99025;-77
2024/01/08 13:11:36;;;;;;;3.10;2.90;;;;;;;;;;5068781;27;98405;-78
2024/01/08 13:14:12;;;;;;;4.88;2.22;;;;;;;;;;5069971;27;98549;-80
2024/01/08 13:16:38;;;;;;;3.78;2.15;;;;;;;;;;5054166;27;100012;-77
2024/01/08 13:19:06;;;;;;;2.13;2.03;;;;;;;;;;5047791;27;99616;-79
2024/01/08 13:21:39;;;;;;;2.00;1.90;;;;;;;;;;5047197;27;98832;-78
2024/01/08 13:24:15;;;;;;;2.63;2.53;;;;;;;;;;5046652;27;98177;-74
2024/01/08 13:26:42;;;;;;;2.38;2.28;;;;;;;;;;5046606;27;98733;-77
2024/01/08 13:29:09;;;;;;;2.15;2.05;;;;;;;;;;5046901;27;98106;-80
2024/01/08 13:31:39;;;;;;;1.73;1.73;;;;;;;;;;5067745;27;98257;-78
2024/01/08 13:34:06;;;;;;;2.10;2.00;;;;;;;;;;5067973;27;99508;-79
2024/01/08 13:36:33;;;;;;;2.45;2.35;;;;;;;;;;5066939;27;99136;-78
2024/01/08 13:39:00;;;;;;;2.42;2.33;;;;;;;;;;5049507;27;98051;-79
2024/01/08 13:41:27;;;;;;;1.92;1.83;;;;;;;;;;5048494;27;99906;-79
2024/01/08 13:43:53;;;;;;;2.80;2.20;;;;;;;;;;5050978;27;98304;-79
2024/01/08 13:46:19;;;;;;;7.30;2.85;;;;;;;;;;5049823;27;99518;-79
2024/01/08 13:48:46;;;;;;;1.80;1.70;;;;;;;;;;5064992;27;99972;-78
2024/01/08 13:51:13;;;;;;;9.02;3.05;;;;;;;;;;5049643;27;98237;-77
2024/01/08 13:53:40;;;;;;;2.25;2.10;;;;;;;;;;5052481;27;99825;-78
2024/01/08 13:56:07;;;;;;;2.75;2.55;;;;;;;;;;5052192;27;100471;-77
2024/01/08 13:58:33;;;;;;;3.58;2.45;;;;;;;;;;5049508;27;99847;-79
2024/01/08 14:01:00;;;;;;;2.10;1.90;;;;;;;;;;5059941;27;99921;-78
2024/01/08 14:03:26;;;;;;;4.03;2.28;;;;;;;;;;5052843;27;99775;-78
2024/01/08 14:05:53;;;;;;;5.30;2.42;;;;;;;;;;5054979;27;99633;-77
2024/01/08 14:08:19;;;;;;;2.85;2.65;;;;;;;;;;5049286;27;99820;-77
2024/01/08 14:10:46;;;;;;;1.75;1.65;;;;;;;;;;5052610;27;100554;-78
2024/01/08 14:13:12;;;;;;;10.70;3.28;;;;;;;;;;5050131;27;99523;-78
2024/01/08 14:15:39;;;;;;;2.15;2.00;;;;;;;;;;5058383;27;99870;-76
2024/01/08 14:18:05;;;;;;;2.72;2.63;;;;;;;;;;5050440;27;98259;-75
2024/01/08 14:20:32;;;;;;;2.95;2.75;;;;;;;;;;5048824;27;99499;-76
2024/01/08 14:22:59;;;;;;;2.25;2.05;;;;;;;;;;5057019;27;98959;-76
2024/01/08 14:25:25;;;;;;;2.70;2.50;;;;;;;;;;5055245;27;99929;-76
2024/01/08 14:27:51;;;;;;;2.10;2.00;;;;;;;;;;5051023;27;99094;-77
2024/01/08 14:30:18;;;;;;;2.22;1.92;;;;;;;;;;5050719;27;98247;-75
2024/01/08 14:32:45;;;;;;;1.60;1.52;;;;;;;;;;5055790;27;100513;-75
2024/01/08 14:35:12;;;;;;;5.07;2.17;;;;;;;;;;5050651;27;100291;-75
2024/01/08 14:37:39;;;;;;;1.90;1.80;;;;;;;;;;5056692;27;100176;-75
2024/01/08 14:40:06;;;;;;;2.20;2.10;;;;;;;;;;5052007;27;99343;-76